Time;durP1;ratioP1;P1;durP2;ratioP2;P2;SDS_P1;SDS_P2;PMS_P1;PMS_P2;Temp;Humidity;BMP_temperature;BMP_pressure;BME280_temperature;BME280_humidity;BME280_pressure;Samples;Min_cycle;Max_cycle;Signal;HPM_P1;HPM_P2
2022/04/29 00:00:18;;;;;;;;;;;;;;;;;;5048329;28;19964;-65
2022/04/29 00:02:45;;;;;;;;;;;;;;;;;;5048608;28;20003;-65
2022/04/29 00:05:11;;;;;;;;;;;;;;;;;;5056524;28;19982;-66
2022/04/29 00:07:38;;;;;;;;;;;;;;;;;;5035487;28;20343;-65
2022/04/29 00:10:08;;;;;;;;;;;;;;;;;;5058084;28;19921;-66
2022/04/29 00:12:34;;;;;;;;;;;;;;;;;;5038860;28;19917;-65
2022/04/29 00:14:59;;;;;;;;;;;;;;;;;;5036479;28;19917;-66
2022/04/29 00:17:25;;;;;;;;;;;;;;;;;;5044482;28;19947;-66
2022/04/29 00:19:50;;;;;;;;;;;;;;;;;;5047577;28;19923;-66
2022/04/29 00:22:16;;;;;;;;;;;;;;;;;;5052734;28;19920;-65
2022/04/29 00:24:42;;;;;;;;;;;;;;;;;;5030702;28;19971;-66
2022/04/29 00:27:07;;;;;;;;;;;;;;;;;;5050394;28;19998;-65
2022/04/29 00:29:33;;;;;;;;;;;;;;;;;;5028507;28;20012;-65
2022/04/29 00:31:58;;;;;;;;;;;;;;;;;;5030850;28;19917;-66
2022/04/29 00:34:24;;;;;;;;;;;;;;;;;;5015455;28;19920;-65
2022/04/29 00:36:50;;;;;;;;;;;;;;;;;;5011040;28;20388;-65
2022/04/29 00:39:15;;;;;;;;;;;;;;;;;;5047713;28;19917;-65
2022/04/29 00:41:44;;;;;;;;;;;;;;;;;;5030971;28;19917;-65
2022/04/29 00:44:10;;;;;;;;;;;;;;;;;;5027417;28;19976;-66
2022/04/29 00:46:37;;;;;;;;;;;;;;;;;;5030182;28;19933;-66
2022/04/29 00:49:04;;;;;;;;;;;;;;;;;;5044715;28;19925;-66
2022/04/29 00:51:30;;;;;;;;;;;;;;;;;;5049472;28;19917;-65
2022/04/29 00:53:56;;;;;;;;;;;;;;;;;;5029792;28;20423;-65
2022/04/29 00:56:23;;;;;;;;;;;;;;;;;;5029565;28;19921;-65
2022/04/29 00:58:58;;;;;;;;;;;;;;;;;;5047572;28;20007;-65
2022/04/29 01:01:25;;;;;;;;;;;;;;;;;;5014764;28;19970;-65
2022/04/29 01:03:51;;;;;;;;;;;;;;;;;;5049370;28;19971;-65
2022/04/29 01:06:17;;;;;;;;;;;;;;;;;;5031799;28;19921;-66
2022/04/29 01:08:42;;;;;;;;;;;;;;;;;;5028896;28;19921;-65
2022/04/29 01:11:08;;;;;;;;;;;;;;;;;;5028507;28;19944;-68
2022/04/29 01:13:34;;;;;;;;;;;;;;;;;;5012016;28;20343;-65
2022/04/29 01:16:00;;;;;;;;;;;;;;;;;;5027653;28;19925;-65
2022/04/29 01:18:27;;;;;;;;;;;;;;;;;;5012138;28;19917;-66
2022/04/29 01:21:03;;;;;;;;;;;;;;;;;;5025196;28;20024;-65
2022/04/29 01:23:29;;;;;;;;;;;;;;;;;;5044273;28;19917;-65
2022/04/29 01:25:55;;;;;;;;;;;;;;;;;;5024866;28;19999;-66
2022/04/29 01:28:21;;;;;;;;;;;;;;;;;;5029589;28;19924;-66
2022/04/29 01:30:47;;;;;;;;;;;;;;;;;;5032085;28;19921;-65
2022/04/29 01:33:16;;;;;;;;;;;;;;;;;;5029099;28;19928;-66
2022/04/29 01:35:41;;;;;;;;;;;;;;;;;;5014072;28;19917;-65
2022/04/29 01:38:07;;;;;;;;;;;;;;;;;;5030604;28;19967;-65
2022/04/29 01:40:33;;;;;;;;;;;;;;;;;;5031398;28;19924;-65
2022/04/29 01:43:04;;;;;;;;;;;;;;;;;;5028965;28;19921;-65
2022/04/29 01:45:31;;;;;;;;;;;;;;;;;;5027817;28;19977;-65
2022/04/29 01:48:09;;;;;;;;;;;;;;;;;;5025513;28;19940;-65
2022/04/29 01:50:43;;;;;;;;;;;;;;;;;;5029209;28;20439;-66
2022/04/29 01:53:09;;;;;;;;;;;;;;;;;;5047079;28;20388;-66
2022/04/29 01:55:35;;;;;;;;;;;;;;;;;;5046423;28;19927;-66
2022/04/29 01:58:01;;;;;;;;;;;;;;;;;;5030237;28;19983;-66
2022/04/29 02:00:27;;;;;;;;;;;;;;;;;;5043219;28;19955;-66
2022/04/29 02:02:55;;;;;;;;;;;;;;;;;;5026800;28;19921;-66
2022/04/29 02:05:21;;;;;;;;;;;;;;;;;;5043584;28;19924;-65
2022/04/29 02:07:47;;;;;;;;;;;;;;;;;;5026409;28;19929;-66
2022/04/29 02:10:14;;;;;;;;;;;;;;;;;;5027023;28;19952;-66
2022/04/29 02:12:40;;;;;;;;;;;;;;;;;;5023147;28;19924;-65
2022/04/29 02:15:24;;;;;;;;;;;;;;;;;;5048620;28;19921;-65
2022/04/29 02:17:50;;;;;;;;;;;;;;;;;;5025210;28;19936;-65
2022/04/29 02:20:17;;;;;;;;;;;;;;;;;;5011706;28;20402;-65
2022/04/29 02:22:42;;;;;;;;;;;;;;;;;;5027769;28;20149;-66
2022/04/29 02:25:08;;;;;;;;;;;;;;;;;;5028330;28;20295;-66
2022/04/29 02:27:35;;;;;;;;;;;;;;;;;;5023531;28;20226;-65
2022/04/29 02:30:02;;;;;;;;;;;;;;;;;;5026715;28;20284;-67
2022/04/29 02:32:27;;;;;;;;;;;;;;;;;;5041047;28;20017;-66
2022/04/29 02:34:53;;;;;;;;;;;;;;;;;;5029563;28;19964;-66
2022/04/29 02:37:19;;;;;;;;;;;;;;;;;;5045169;28;19925;-65
2022/04/29 02:39:48;;;;;;;;;;;;;;;;;;5027500;28;19920;-65
2022/04/29 02:42:13;;;;;;;;;;;;;;;;;;5026526;28;19927;-65
2022/04/29 02:44:39;;;;;;;;;;;;;;;;;;5027770;28;20416;-65
2022/04/29 02:47:09;;;;;;;;;;;;;;;;;;5025127;28;19920;-65
2022/04/29 02:49:39;;;;;;;;;;;;;;;;;;5026789;28;20016;-66
2022/04/29 02:52:07;;;;;;;;;;;;;;;;;;5025519;28;19916;-65
2022/04/29 02:54:32;;;;;;;;;;;;;;;;;;5045933;28;19924;-65
2022/04/29 02:56:58;;;;;;;;;;;;;;;;;;5017140;28;20329;-66
2022/04/29 02:59:32;;;;;;;;;;;;;;;;;;5022576;28;19916;-65
2022/04/29 03:01:58;;;;;;;;;;;;;;;;;;5026621;28;19927;-66
2022/04/29 03:04:25;;;;;;;;;;;;;;;;;;5027269;28;19920;-65
2022/04/29 03:06:50;;;;;;;;;;;;;;;;;;5028485;28;19921;-65
2022/04/29 03:09:16;;;;;;;;;;;;;;;;;;5027321;28;19988;-65
2022/04/29 03:11:42;;;;;;;;;;;;;;;;;;5028844;28;19917;-65
2022/04/29 03:14:08;;;;;;;;;;;;;;;;;;5007924;28;19927;-65
2022/04/29 03:16:34;;;;;;;;;;;;;;;;;;5029335;28;19967;-65
2022/04/29 03:18:59;;;;;;;;;;;;;;;;;;5036953;28;19917;-66
2022/04/29 03:21:26;;;;;;;;;;;;;;;;;;5027156;28;19917;-66
2022/04/29 03:23:51;;;;;;;;;;;;;;;;;;5030564;28;19916;-65
2022/04/29 03:26:17;;;;;;;;;;;;;;;;;;5029012;28;20501;-66
2022/04/29 03:28:43;;;;;;;;;;;;;;;;;;5031066;28;19927;-65
2022/04/29 03:31:09;;;;;;;;;;;;;;;;;;5037019;22;19925;-73
2022/04/29 03:33:54;;;;;;;;;;;;;;;;;;5028158;28;19960;-72
2022/04/29 03:36:20;;;;;;;;;;;;;;;;;;5013596;28;20407;-72
2022/04/29 03:38:52;;;;;;;;;;;;;;;;;;4992096;28;19917;-73
2022/04/29 03:41:19;;;;;;;;;;;;;;;;;;4994425;28;19937;-73
2022/04/29 03:43:44;;;;;;;;;;;;;;;;;;5009587;28;20008;-73
2022/04/29 03:46:16;;;;;;;;;;;;;;;;;;4988068;28;19922;-73
2022/04/29 03:51:48;;;;;;;;;;;;;;;;;;5011097;28;20332;-73
2022/04/29 03:54:14;;;;;;;;;;;;;;;;;;4993328;28;20372;-73
2022/04/29 03:56:52;;;;;;;;;;;;;;;;;;4990525;28;19924;-76
2022/04/29 03:59:18;;;;;;;;;;;;;;;;;;4999521;28;20419;-67
2022/04/29 04:01:45;;;;;;;;;;;;;;;;;;4972614;28;19958;-67
2022/04/29 04:04:10;;;;;;;;;;;;;;;;;;4967891;28;19918;-66
2022/04/29 04:06:51;;;;;;;;;;;;;;;;;;4996205;28;20215;-66
2022/04/29 04:09:35;;;;;;;;;;;;;;;;;;4980248;28;20521;-67
2022/04/29 04:12:04;;;;;;;;;;;;;;;;;;4972270;28;20021;-67
2022/04/29 04:14:58;;;;;;;;;;;;;;;;;;4964790;28;20339;-66
2022/04/29 04:17:24;;;;;;;;;;;;;;;;;;4976562;28;19924;-67
2022/04/29 04:19:50;;;;;;;;;;;;;;;;;;4968980;28;19918;-67
2022/04/29 04:22:15;;;;;;;;;;;;;;;;;;4969134;28;20067;-68
2022/04/29 04:24:42;;;;;;;;;;;;;;;;;;4992047;28;19937;-66
2022/04/29 04:27:07;;;;;;;;;;;;;;;;;;4977468;28;20013;-67
2022/04/29 04:29:33;;;;;;;;;;;;;;;;;;4980121;28;19965;-67
2022/04/29 04:31:59;;;;;;;;;;;;;;;;;;4975714;28;19924;-67
2022/04/29 04:37:08;;;;;;;;;;;;;;;;;;4969508;28;20498;-67
2022/04/29 04:39:34;;;;;;;;;;;;;;;;;;4970970;28;19918;-67
2022/04/29 04:42:06;;;;;;;;;;;;;;;;;;4975240;28;19981;-67
2022/04/29 04:44:45;;;;;;;;;;;;;;;;;;4972566;28;20405;-67
2022/04/29 04:47:10;;;;;;;;;;;;;;;;;;4969775;28;20650;-67
2022/04/29 04:50:11;;;;;;;;;;;;;;;;;;4969008;28;19929;-67
2022/04/29 04:52:41;;;;;;;;;;;;;;;;;;4973751;28;19918;-67
2022/04/29 04:55:07;;;;;;;;;;;;;;;;;;4967468;28;19922;-66
2022/04/29 04:57:35;;;;;;;;;;;;;;;;;;4963646;28;19921;-67
2022/04/29 05:00:01;;;;;;;;;;;;;;;;;;4977443;28;19965;-67
2022/04/29 05:02:43;;;;;;;;;;;;;;;;;;4980180;28;20404;-67
2022/04/29 05:05:35;;;;;;;;;;;;;;;;;;4970337;28;19971;-68
2022/04/29 05:08:05;;;;;;;;;;;;;;;;;;4972137;28;19918;-67
2022/04/29 05:10:30;;;;;;;;;;;;;;;;;;4954240;28;20377;-67
2022/04/29 05:12:56;;;;;;;;;;;;;;;;;;4973936;28;19925;-67
2022/04/29 05:15:28;;;;;;;;;;;;;;;;;;4956230;28;20333;-66
2022/04/29 05:17:53;;;;;;;;;;;;;;;;;;4976345;28;19956;-67
2022/04/29 05:20:19;;;;;;;;;;;;;;;;;;4980719;28;19960;-66
2022/04/29 05:22:47;;;;;;;;;;;;;;;;;;4970932;28;19946;-66
2022/04/29 05:25:13;;;;;;;;;;;;;;;;;;4980781;28;19929;-68
2022/04/29 05:27:57;;;;;;;;;;;;;;;;;;4988639;28;19918;-68
2022/04/29 05:30:41;;;;;;;;;;;;;;;;;;4977627;28;19918;-66
2022/04/29 05:33:26;;;;;;;;;;;;;;;;;;4970051;28;20285;-67
2022/04/29 05:36:11;;;;;;;;;;;;;;;;;;4970912;28;19929;-67
2022/04/29 05:44:24;;;;;;;;;;;;;;;;;;4969196;28;19918;-67
2022/04/29 05:46:49;;;;;;;;;;;;;;;;;;4967541;28;20024;-67
2022/04/29 05:49:16;;;;;;;;;;;;;;;;;;4989570;28;19918;-68
2022/04/29 05:51:46;;;;;;;;;;;;;;;;;;4968940;28;20013;-67
2022/04/29 05:54:12;;;;;;;;;;;;;;;;;;4964425;28;19976;-67
2022/04/29 05:56:38;;;;;;;;;;;;;;;;;;4967393;28;20369;-67
2022/04/29 05:59:07;;;;;;;;;;;;;;;;;;4964102;28;19918;-67
2022/04/29 06:02:11;;;;;;;;;;;;;;;;;;4945838;29;19919;-67
2022/04/29 06:04:45;;;;;;;;;;;;;;;;;;4935724;29;20773;-66
2022/04/29 06:07:10;;;;;;;;;;;;;;;;;;4914477;29;19923;-69
2022/04/29 06:09:37;;;;;;;;;;;;;;;;;;4926264;29;20005;-67
2022/04/29 06:12:03;;;;;;;;;;;;;;;;;;4947145;29;20110;-68
2022/04/29 06:14:34;;;;;;;;;;;;;;;;;;4946475;29;20666;-67
2022/04/29 06:17:23;;;;;;;;;;;;;;;;;;4943901;29;20349;-68
2022/04/29 06:20:07;;;;;;;;;;;;;;;;;;4945445;29;19918;-68
2022/04/29 06:22:52;;;;;;;;;;;;;;;;;;4946273;29;19922;-67
2022/04/29 06:25:25;;;;;;;;;;;;;;;;;;4926697;28;19925;-68
2022/04/29 06:27:52;;;;;;;;;;;;;;;;;;4931915;29;19981;-68
2022/04/29 06:30:18;;;;;;;;;;;;;;;;;;4932761;29;19922;-68
2022/04/29 06:33:11;;;;;;;;;;;;;;;;;;4954163;28;20036;-68
2022/04/29 06:35:44;;;;;;;;;;;;;;;;;;4968331;28;20017;-68
2022/04/29 06:38:12;;;;;;;;;;;;;;;;;;4977125;28;20626;-67
2022/04/29 06:41:03;;;;;;;;;;;;;;;;;;4963498;28;19919;-68
2022/04/29 06:43:34;;;;;;;;;;;;;;;;;;4967477;28;20480;-67
2022/04/29 06:46:29;;;;;;;;;;;;;;;;;;4955746;28;19937;-68
2022/04/29 06:49:13;;;;;;;;;;;;;;;;;;4964515;28;19961;-68
2022/04/29 06:52:04;;;;;;;;;;;;;;;;;;4968928;28;19928;-67
2022/04/29 06:54:46;;;;;;;;;;;;;;;;;;4965644;28;19930;-68
2022/04/29 06:57:12;;;;;;;;;;;;;;;;;;4962522;28;19922;-68
2022/04/29 06:59:38;;;;;;;;;;;;;;;;;;4967318;28;19925;-69
2022/04/29 07:02:04;;;;;;;;;;;;;;;;;;4965218;28;20380;-67
2022/04/29 07:04:32;;;;;;;;;;;;;;;;;;4966147;28;19925;-68
2022/04/29 07:06:58;;;;;;;;;;;;;;;;;;4962477;28;20002;-67
2022/04/29 07:09:24;;;;;;;;;;;;;;;;;;4969455;28;19929;-67
2022/04/29 07:12:08;;;;;;;;;;;;;;;;;;4968475;28;19968;-68
2022/04/29 07:14:47;;;;;;;;;;;;;;;;;;4968485;28;19950;-68
2022/04/29 07:17:12;;;;;;;;;;;;;;;;;;4966894;28;19961;-67
2022/04/29 07:19:41;;;;;;;;;;;;;;;;;;4966299;28;19973;-68
2022/04/29 07:22:07;;;;;;;;;;;;;;;;;;4967555;28;19922;-67
2022/04/29 07:24:39;;;;;;;;;;;;;;;;;;4981837;28;19925;-68
2022/04/29 07:27:05;;;;;;;;;;;;;;;;;;4974394;28;19923;-68
2022/04/29 07:29:31;;;;;;;;;;;;;;;;;;4941960;29;19998;-67
2022/04/29 07:32:02;;;;;;;;;;;;;;;;;;4962934;28;19922;-68
2022/04/29 07:43:51;;;;;;;;;;;;;;;;;;4965851;28;20772;-69
2022/04/29 07:46:17;;;;;;;;;;;;;;;;;;4971941;28;20621;-68
2022/04/29 07:48:45;;;;;;;;;;;;;;;;;;4971986;28;19925;-68
2022/04/29 07:51:10;;;;;;;;;;;;;;;;;;4965873;28;19918;-68
2022/04/29 07:53:36;;;;;;;;;;;;;;;;;;4969448;28;19949;-68
2022/04/29 07:56:02;;;;;;;;;;;;;;;;;;4967890;28;19922;-69
2022/04/29 07:58:31;;;;;;;;;;;;;;;;;;4979748;28;20328;-69
2022/04/29 08:00:57;;;;;;;;;;;;;;;;;;4968235;28;19918;-68
2022/04/29 08:03:23;;;;;;;;;;;;;;;;;;4967309;28;20001;-68
2022/04/29 08:05:54;;;;;;;;;;;;;;;;;;4986603;28;20304;-68
2022/04/29 08:08:20;;;;;;;;;;;;;;;;;;4967837;28;19922;-68
2022/04/29 08:10:46;;;;;;;;;;;;;;;;;;4969323;28;19924;-69
2022/04/29 08:13:12;;;;;;;;;;;;;;;;;;4964754;28;19918;-69
2022/04/29 08:15:58;;;;;;;;;;;;;;;;;;4963585;28;20308;-68
2022/04/29 08:18:43;;;;;;;;;;;;;;;;;;4969423;28;19949;-68
2022/04/29 08:21:09;;;;;;;;;;;;;;;;;;4966382;28;19926;-68
2022/04/29 08:23:35;;;;;;;;;;;;;;;;;;4968661;28;19926;-68
2022/04/29 08:26:01;;;;;;;;;;;;;;;;;;4966930;28;19933;-69
2022/04/29 08:28:28;;;;;;;;;;;;;;;;;;4968856;28;20322;-69
2022/04/29 08:30:53;;;;;;;;;;;;;;;;;;4970215;28;19929;-69
2022/04/29 08:33:21;;;;;;;;;;;;;;;;;;4974303;28;19918;-68
2022/04/29 08:35:49;;;;;;;;;;;;;;;;;;4969645;28;19953;-68
2022/04/29 08:38:16;;;;;;;;;;;;;;;;;;4969389;28;19984;-69
2022/04/29 08:40:46;;;;;;;;;;;;;;;;;;4962118;28;19965;-69
2022/04/29 08:43:14;;;;;;;;;;;;;;;;;;4973364;28;19925;-69
2022/04/29 08:45:41;;;;;;;;;;;;;;;;;;4963187;28;19925;-68
2022/04/29 08:48:45;;;;;;;;;;;;;;;;;;4962251;28;19925;-69
2022/04/29 08:51:10;;;;;;;;;;;;;;;;;;4970344;28;19926;-68
2022/04/29 08:53:36;;;;;;;;;;;;;;;;;;4969296;28;19973;-68
2022/04/29 08:58:46;;;;;;;;;;;;;;;;;;4968500;28;19926;-68
2022/04/29 09:01:20;;;;;;;;;;;;;;;;;;4967988;28;19918;-68
2022/04/29 09:03:46;;;;;;;;;;;;;;;;;;4969557;28;20329;-68
2022/04/29 09:06:12;;;;;;;;;;;;;;;;;;4968205;28;19929;-69
2022/04/29 09:08:39;;;;;;;;;;;;;;;;;;4967332;28;20501;-69
2022/04/29 09:11:05;;;;;;;;;;;;;;;;;;4974524;28;19920;-69
2022/04/29 09:13:40;;;;;;;;;;;;;;;;;;4973693;28;19926;-68
2022/04/29 09:16:06;;;;;;;;;;;;;;;;;;4966024;28;19922;-68
2022/04/29 09:18:40;;;;;;;;;;;;;;;;;;4972729;28;19922;-68
2022/04/29 09:21:07;;;;;;;;;;;;;;;;;;4970821;28;19925;-68
2022/04/29 09:23:36;;;;;;;;;;;;;;;;;;4969939;28;19954;-69
2022/04/29 09:26:21;;;;;;;;;;;;;;;;;;4969849;28;19932;-69
2022/04/29 09:29:17;;;;;;;;;;;;;;;;;;4960174;28;19925;-68
2022/04/29 09:32:23;;;;;;;;;;;;;;;;;;4966118;28;20400;-68
2022/04/29 09:35:36;;;;;;;;;;;;;;;;;;4972317;28;19918;-68
2022/04/29 09:40:47;;;;;;;;;;;;;;;;;;4962525;28;20009;-68
2022/04/29 09:43:12;;;;;;;;;;;;;;;;;;4968989;28;20009;-68
2022/04/29 09:45:38;;;;;;;;;;;;;;;;;;4965087;28;19976;-68
2022/04/29 09:48:07;;;;;;;;;;;;;;;;;;4966822;28;20389;-68
2022/04/29 09:50:49;;;;;;;;;;;;;;;;;;4964211;28;19919;-68
2022/04/29 09:53:16;;;;;;;;;;;;;;;;;;4969717;28;20009;-68
2022/04/29 09:55:42;;;;;;;;;;;;;;;;;;4967250;28;19973;-69
2022/04/29 09:58:09;;;;;;;;;;;;;;;;;;4967875;28;19922;-68
2022/04/29 10:00:35;;;;;;;;;;;;;;;;;;4967138;28;20308;-68
2022/04/29 10:03:03;;;;;;;;;;;;;;;;;;4965951;28;20001;-68
2022/04/29 10:05:30;;;;;;;;;;;;;;;;;;4966869;28;19918;-68
2022/04/29 10:08:03;;;;;;;;;;;;;;;;;;4966971;28;19918;-68
2022/04/29 10:10:30;;;;;;;;;;;;;;;;;;4968031;28;19922;-68
2022/04/29 10:12:56;;;;;;;;;;;;;;;;;;4977194;28;19918;-68
2022/04/29 10:15:51;;;;;;;;;;;;;;;;;;4965646;28;19918;-68
2022/04/29 10:21:54;;;;;;;;;;;;;;;;;;4973957;28;20009;-68
2022/04/29 10:24:24;;;;;;;;;;;;;;;;;;4965444;28;20062;-68
2022/04/29 10:26:52;;;;;;;;;;;;;;;;;;4965549;28;19926;-68
2022/04/29 10:29:18;;;;;;;;;;;;;;;;;;4967068;28;19922;-68
2022/04/29 10:32:03;;;;;;;;;;;;;;;;;;4963402;28;19925;-69
2022/04/29 10:34:29;;;;;;;;;;;;;;;;;;4965440;28;19922;-68
2022/04/29 10:36:55;;;;;;;;;;;;;;;;;;4968964;28;20323;-68
2022/04/29 10:39:21;;;;;;;;;;;;;;;;;;4970998;28;19922;-68
2022/04/29 10:42:00;;;;;;;;;;;;;;;;;;4963947;28;19922;-69
2022/04/29 10:44:26;;;;;;;;;;;;;;;;;;4961896;28;20337;-68
2022/04/29 10:46:51;;;;;;;;;;;;;;;;;;4968532;28;19922;-68
2022/04/29 10:49:24;;;;;;;;;;;;;;;;;;4963479;28;19921;-69
2022/04/29 10:52:23;;;;;;;;;;;;;;;;;;4965959;28;20444;-68
2022/04/29 10:54:59;;;;;;;;;;;;;;;;;;4964214;28;20431;-68
2022/04/29 10:57:50;;;;;;;;;;;;;;;;;;4979490;28;19949;-68
2022/04/29 11:00:24;;;;;;;;;;;;;;;;;;4986934;28;20391;-69
2022/04/29 11:02:54;;;;;;;;;;;;;;;;;;4980814;28;19972;-68
2022/04/29 11:05:36;;;;;;;;;;;;;;;;;;4983621;28;19922;-68
2022/04/29 11:08:11;;;;;;;;;;;;;;;;;;4964890;28;19929;-68
2022/04/29 11:10:52;;;;;;;;;;;;;;;;;;4961713;28;19919;-68
2022/04/29 11:13:21;;;;;;;;;;;;;;;;;;4966732;28;20312;-71
2022/04/29 11:16:12;;;;;;;;;;;;;;;;;;4986511;28;20282;-68
2022/04/29 11:19:19;;;;;;;;;;;;;;;;;;4976429;28;19918;-68
2022/04/29 11:24:42;;;;;;;;;;;;;;;;;;4966283;28;20287;-68
2022/04/29 11:27:10;;;;;;;;;;;;;;;;;;4965239;28;19923;-69
2022/04/29 11:29:43;;;;;;;;;;;;;;;;;;4966152;28;19925;-68
2022/04/29 11:32:31;;;;;;;;;;;;;;;;;;4960845;28;19922;-69
2022/04/29 11:34:57;;;;;;;;;;;;;;;;;;4964217;28;20046;-68
2022/04/29 11:37:24;;;;;;;;;;;;;;;;;;4963865;28;20395;-68
2022/04/29 11:39:50;;;;;;;;;;;;;;;;;;4964026;28;19919;-68
2022/04/29 11:42:17;;;;;;;;;;;;;;;;;;4963671;28;19985;-68
2022/04/29 11:44:44;;;;;;;;;;;;;;;;;;4967922;28;19942;-68
2022/04/29 11:47:09;;;;;;;;;;;;;;;;;;4971983;28;19969;-67
2022/04/29 11:49:41;;;;;;;;;;;;;;;;;;4981125;28;20058;-68
2022/04/29 11:52:27;;;;;;;;;;;;;;;;;;4973227;28;20382;-68
2022/04/29 11:54:54;;;;;;;;;;;;;;;;;;4968545;28;19926;-68
2022/04/29 11:57:20;;;;;;;;;;;;;;;;;;4970468;28;20348;-67
2022/04/29 11:59:46;;;;;;;;;;;;;;;;;;4971137;28;19977;-68
2022/04/29 12:02:14;;;;;;;;;;;;;;;;;;4969227;28;19918;-67
2022/04/29 12:04:51;;;;;;;;;;;;;;;;;;4970948;28;20185;-68
2022/04/29 12:07:17;;;;;;;;;;;;;;;;;;4972196;28;19926;-68
2022/04/29 12:09:42;;;;;;;;;;;;;;;;;;4968706;28;19924;-68
2022/04/29 12:12:24;;;;;;;;;;;;;;;;;;4969475;28;19925;-68
2022/04/29 12:14:49;;;;;;;;;;;;;;;;;;4963219;28;19962;-68
2022/04/29 12:17:18;;;;;;;;;;;;;;;;;;4981198;28;19960;-67
2022/04/29 12:19:47;;;;;;;;;;;;;;;;;;4967214;28;20011;-68
2022/04/29 12:22:26;;;;;;;;;;;;;;;;;;4974774;28;20405;-68
2022/04/29 12:24:51;;;;;;;;;;;;;;;;;;4970698;28;20396;-68
2022/04/29 12:27:27;;;;;;;;;;;;;;;;;;4970546;28;20032;-68
2022/04/29 12:34:48;;;;;;;;;;;;;;;;;;4970120;28;19918;-68
2022/04/29 12:35:29;;;;;;;;;;;;;;;;;;4968821;28;19918;-68
2022/04/29 12:37:54;;;;;;;;;;;;;;;;;;4971844;28;19918;-68
2022/04/29 12:40:27;;;;;;;;;;;;;;;;;;4970386;28;20189;-67
2022/04/29 12:42:53;;;;;;;;;;;;;;;;;;4966037;28;19918;-67
2022/04/29 12:45:25;;;;;;;;;;;;;;;;;;4965401;28;19926;-69
2022/04/29 12:48:07;;;;;;;;;;;;;;;;;;4962931;28;19934;-68
2022/04/29 12:50:44;;;;;;;;;;;;;;;;;;4962518;28;19925;-69
2022/04/29 12:53:12;;;;;;;;;;;;;;;;;;4968797;28;20324;-69
2022/04/29 12:55:48;;;;;;;;;;;;;;;;;;4965406;28;20275;-68
2022/04/29 12:58:14;;;;;;;;;;;;;;;;;;4963841;28;20094;-68
2022/04/29 13:00:41;;;;;;;;;;;;;;;;;;4964469;28;19955;-69
2022/04/29 13:03:17;;;;;;;;;;;;;;;;;;4966372;28;19918;-69
2022/04/29 13:05:44;;;;;;;;;;;;;;;;;;4964123;28;20025;-69
2022/04/29 13:08:10;;;;;;;;;;;;;;;;;;4966936;28;20037;-69
2022/04/29 13:10:42;;;;;;;;;;;;;;;;;;4971841;28;19922;-68
2022/04/29 13:13:07;;;;;;;;;;;;;;;;;;4964650;28;19988;-68
2022/04/29 13:15:33;;;;;;;;;;;;;;;;;;4947612;28;20466;-69
2022/04/29 13:17:59;;;;;;;;;;;;;;;;;;4963445;28;19922;-69
2022/04/29 13:20:26;;;;;;;;;;;;;;;;;;4963027;28;20345;-66
2022/04/29 13:22:55;;;;;;;;;;;;;;;;;;4983045;28;19921;-68
2022/04/29 13:25:22;;;;;;;;;;;;;;;;;;4971912;28;20330;-68
2022/04/29 13:27:47;;;;;;;;;;;;;;;;;;4961862;28;20202;-68
2022/04/29 13:30:13;;;;;;;;;;;;;;;;;;4967655;28;19938;-68
2022/04/29 13:32:38;;;;;;;;;;;;;;;;;;4965758;28;19922;-69
2022/04/29 13:35:06;;;;;;;;;;;;;;;;;;4964888;28;19922;-68
2022/04/29 13:37:32;;;;;;;;;;;;;;;;;;4959866;28;19926;-68
2022/04/29 13:39:58;;;;;;;;;;;;;;;;;;4965267;28;19969;-68
2022/04/29 13:42:24;;;;;;;;;;;;;;;;;;4966563;28;19927;-68
2022/04/29 13:44:50;;;;;;;;;;;;;;;;;;4963607;28;19922;-68
2022/04/29 13:47:16;;;;;;;;;;;;;;;;;;4966507;28;19926;-68
2022/04/29 13:49:41;;;;;;;;;;;;;;;;;;4962772;28;20014;-68
2022/04/29 13:54:51;;;;;;;;;;;;;;;;;;4967467;28;19922;-68
2022/04/29 13:57:16;;;;;;;;;;;;;;;;;;4964076;28;20010;-68
2022/04/29 13:59:42;;;;;;;;;;;;;;;;;;4964082;28;20017;-68
2022/04/29 14:02:08;;;;;;;;;;;;;;;;;;4972680;28;19918;-68
2022/04/29 14:04:33;;;;;;;;;;;;;;;;;;4965513;28;19922;-68
2022/04/29 14:06:59;;;;;;;;;;;;;;;;;;4966845;28;19986;-68
2022/04/29 14:09:24;;;;;;;;;;;;;;;;;;4964318;28;19922;-68
2022/04/29 14:11:50;;;;;;;;;;;;;;;;;;4967101;28;20356;-68
2022/04/29 14:14:16;;;;;;;;;;;;;;;;;;4968191;28;19921;-68
2022/04/29 14:16:41;;;;;;;;;;;;;;;;;;4962319;28;19926;-68
2022/04/29 14:19:07;;;;;;;;;;;;;;;;;;4961431;28;19926;-68
2022/04/29 14:21:32;;;;;;;;;;;;;;;;;;4974858;28;19924;-68
2022/04/29 14:23:57;;;;;;;;;;;;;;;;;;4974101;28;19925;-68
2022/04/29 14:26:24;;;;;;;;;;;;;;;;;;4963095;28;20012;-68
2022/04/29 14:28:50;;;;;;;;;;;;;;;;;;4964509;28;20349;-68
2022/04/29 14:31:16;;;;;;;;;;;;;;;;;;4966923;28;19928;-68
2022/04/29 14:33:42;;;;;;;;;;;;;;;;;;4964787;28;19949;-68
2022/04/29 14:36:08;;;;;;;;;;;;;;;;;;4966420;28;20413;-68
2022/04/29 14:38:34;;;;;;;;;;;;;;;;;;4967780;28;19930;-68
2022/04/29 14:41:00;;;;;;;;;;;;;;;;;;4966818;28;19945;-68
2022/04/29 14:43:25;;;;;;;;;;;;;;;;;;4956578;28;19922;-68
2022/04/29 14:45:51;;;;;;;;;;;;;;;;;;4966851;28;20120;-68
2022/04/29 14:48:16;;;;;;;;;;;;;;;;;;4968080;28;19922;-68
2022/04/29 14:50:42;;;;;;;;;;;;;;;;;;4970431;28;19929;-68
2022/04/29 14:53:08;;;;;;;;;;;;;;;;;;4964293;28;20029;-68
2022/04/29 14:55:33;;;;;;;;;;;;;;;;;;4966973;28;20466;-68
2022/04/29 14:57:59;;;;;;;;;;;;;;;;;;4961362;28;20503;-68
2022/04/29 15:00:24;;;;;;;;;;;;;;;;;;4960933;28;19919;-68
2022/04/29 15:02:50;;;;;;;;;;;;;;;;;;4966130;28;19922;-68
2022/04/29 15:05:18;;;;;;;;;;;;;;;;;;4959160;28;20308;-68
2022/04/29 15:07:44;;;;;;;;;;;;;;;;;;4965568;28;20445;-68
2022/04/29 15:15:40;;;;;;;;;;;;;;;;;;4964382;28;19941;-69
2022/04/29 15:18:07;;;;;;;;;;;;;;;;;;4963077;28;19918;-68
2022/04/29 15:20:33;;;;;;;;;;;;;;;;;;4962786;28;19965;-69
2022/04/29 15:22:59;;;;;;;;;;;;;;;;;;4966192;28;20421;-68
2022/04/29 15:25:24;;;;;;;;;;;;;;;;;;4969609;28;19922;-68
2022/04/29 15:27:50;;;;;;;;;;;;;;;;;;4962541;28;20288;-69
2022/04/29 15:30:15;;;;;;;;;;;;;;;;;;4978011;22;19945;-67
2022/04/29 15:32:41;;;;;;;;;;;;;;;;;;5005234;28;19933;-70
2022/04/29 15:35:07;;;;;;;;;;;;;;;;;;5005914;28;19917;-69
2022/04/29 15:37:32;;;;;;;;;;;;;;;;;;5002193;28;19950;-69
2022/04/29 15:39:58;;;;;;;;;;;;;;;;;;5003503;28;19922;-69
2022/04/29 15:42:23;;;;;;;;;;;;;;;;;;4995067;28;19928;-70
2022/04/29 15:44:49;;;;;;;;;;;;;;;;;;4995495;28;19927;-70
2022/04/29 15:47:14;;;;;;;;;;;;;;;;;;5001367;28;20273;-70
2022/04/29 15:49:40;;;;;;;;;;;;;;;;;;4995508;28;20163;-70
2022/04/29 15:52:06;;;;;;;;;;;;;;;;;;4999256;28;19926;-70
2022/04/29 15:54:31;;;;;;;;;;;;;;;;;;4995221;28;19918;-70
2022/04/29 15:56:58;;;;;;;;;;;;;;;;;;4994255;28;19968;-70
2022/04/29 15:59:23;;;;;;;;;;;;;;;;;;4993948;28;19929;-70
2022/04/29 16:01:49;;;;;;;;;;;;;;;;;;5001331;28;20011;-70
2022/04/29 16:04:15;;;;;;;;;;;;;;;;;;5002234;28;19968;-70
2022/04/29 16:06:40;;;;;;;;;;;;;;;;;;4999146;28;20452;-69
2022/04/29 16:09:06;;;;;;;;;;;;;;;;;;4997674;28;19918;-70
2022/04/29 16:11:32;;;;;;;;;;;;;;;;;;4999666;28;19975;-70
2022/04/29 16:13:57;;;;;;;;;;;;;;;;;;4992110;28;20047;-69
2022/04/29 16:16:26;;;;;;;;;;;;;;;;;;5000339;28;19928;-70
2022/04/29 16:21:38;;;;;;;;;;;;;;;;;;5000831;28;19944;-70
2022/04/29 16:26:47;;;;;;;;;;;;;;;;;;4998658;28;19952;-70
2022/04/29 16:29:14;;;;;;;;;;;;;;;;;;5001733;28;20797;-70
2022/04/29 16:31:40;;;;;;;;;;;;;;;;;;5012112;28;19943;-70
2022/04/29 16:34:05;;;;;;;;;;;;;;;;;;4999953;28;20016;-70
2022/04/29 16:36:31;;;;;;;;;;;;;;;;;;5004565;28;20460;-70
2022/04/29 16:38:56;;;;;;;;;;;;;;;;;;5001533;28;19978;-70
2022/04/29 16:41:22;;;;;;;;;;;;;;;;;;4998402;28;19948;-70
2022/04/29 16:43:50;;;;;;;;;;;;;;;;;;5005138;28;20019;-70
2022/04/29 16:46:16;;;;;;;;;;;;;;;;;;4991366;28;20029;-69
2022/04/29 16:48:42;;;;;;;;;;;;;;;;;;5001420;28;20398;-70
2022/04/29 16:51:07;;;;;;;;;;;;;;;;;;5006892;28;19929;-69
2022/04/29 16:53:33;;;;;;;;;;;;;;;;;;4999977;28;19925;-70
2022/04/29 16:55:59;;;;;;;;;;;;;;;;;;5004534;28;19994;-70
2022/04/29 16:58:43;;;;;;;;;;;;;;;;;;4999345;28;20413;-70
2022/04/29 17:01:09;;;;;;;;;;;;;;;;;;5002439;28;19922;-70
2022/04/29 17:03:35;;;;;;;;;;;;;;;;;;5006693;28;19917;-70
2022/04/29 17:06:01;;;;;;;;;;;;;;;;;;5000746;28;19925;-70
2022/04/29 17:08:26;;;;;;;;;;;;;;;;;;4999800;28;19921;-70
2022/04/29 17:10:53;;;;;;;;;;;;;;;;;;5004349;28;19917;-69
2022/04/29 17:13:18;;;;;;;;;;;;;;;;;;4998471;28;19922;-69
2022/04/29 17:15:46;;;;;;;;;;;;;;;;;;5004830;28;19921;-69
2022/04/29 17:18:12;;;;;;;;;;;;;;;;;;5002298;28;19921;-70
2022/04/29 17:20:37;;;;;;;;;;;;;;;;;;5007179;28;19984;-70
2022/04/29 17:23:03;;;;;;;;;;;;;;;;;;5007542;28;19921;-70
2022/04/29 17:25:29;;;;;;;;;;;;;;;;;;5002957;28;19925;-70
2022/04/29 17:27:54;;;;;;;;;;;;;;;;;;5004963;28;19932;-69
2022/04/29 17:30:20;;;;;;;;;;;;;;;;;;5003706;28;19999;-69
2022/04/29 17:32:49;;;;;;;;;;;;;;;;;;5004013;28;19921;-70
2022/04/29 17:35:15;;;;;;;;;;;;;;;;;;4999804;28;19922;-70
2022/04/29 17:37:41;;;;;;;;;;;;;;;;;;5005097;28;19921;-70
2022/04/29 17:42:51;;;;;;;;;;;;;;;;;;4998926;28;19957;-70
2022/04/29 17:45:16;;;;;;;;;;;;;;;;;;5002447;28;19956;-69
2022/04/29 17:47:43;;;;;;;;;;;;;;;;;;5001510;28;19925;-70
2022/04/29 17:50:21;;;;;;;;;;;;;;;;;;5000722;28;19925;-69
2022/04/29 17:52:48;;;;;;;;;;;;;;;;;;5002073;28;19925;-70